Time;durP1;ratioP1;P1;durP2;ratioP2;P2;SDS_P1;SDS_P2;PMS_P1;PMS_P2;Temp;Humidity;BMP_temperature;BMP_pressure;BME280_temperature;BME280_humidity;BME280_pressure;Samples;Min_cycle;Max_cycle;Signal;HPM_P1;HPM_P2
2023/01/03 00:01:06;;;;;;;8.43;7.75;;;;;;;1.31;100.00;102500.63;5221036;28;20033;-83
2023/01/03 00:03:37;;;;;;;9.32;8.27;;;;;;;2.09;100.00;102620.50;5221323;28;20041;-85
2023/01/03 00:06:22;;;;;;;10.07;9.15;;;;;;;2.17;100.00;102641.88;5219921;28;20025;-84
2023/01/03 00:08:55;;;;;;;10.15;9.32;;;;;;;1.16;100.00;102507.47;5221694;28;20056;-84
2023/01/03 00:14:22;;;;;;;9.68;8.68;;;;;;;2.03;100.00;102627.28;5220914;28;20040;-84
2023/01/03 00:16:54;;;;;;;8.57;8.13;;;;;;;2.08;100.00;102632.16;5221256;28;20107;-82
2023/01/03 00:19:28;;;;;;;9.60;8.98;;;;;;;1.72;100.00;102586.13;5219957;28;20013;-84
2023/01/03 00:21:59;;;;;;;9.68;8.70;;;;;;;1.13;100.00;102510.47;5220994;28;20025;-84
2023/01/03 00:24:30;;;;;;;10.80;9.90;;;;;;;0.83;100.00;102465.66;5219723;28;20068;-83
2023/01/03 00:27:00;;;;;;;8.70;8.00;;;;;;;1.59;100.00;102607.00;5219563;28;20036;-84
2023/01/03 00:29:31;;;;;;;10.15;9.35;;;;;;;1.70;100.00;102628.06;5216008;28;20022;-83
2023/01/03 00:32:02;;;;;;;9.85;9.02;;;;;;;0.74;100.00;102485.19;5217798;28;20021;-84
2023/01/03 00:34:33;;;;;;;10.80;10.00;;;;;;;0.96;100.00;102508.66;5229289;28;20034;-84
2023/01/03 00:37:04;;;;;;;12.73;11.93;;;;;;;1.63;100.00;102621.66;5218189;28;20037;-83
2023/01/03 00:39:34;;;;;;;9.30;8.48;;;;;;;1.61;100.00;102627.16;5216191;28;20056;-83
2023/01/03 00:42:05;;;;;;;10.70;9.73;;;;;;;1.59;100.00;102629.13;5218249;28;20034;-84
2023/01/03 00:44:35;;;;;;;10.35;9.52;;;;;;;1.45;100.00;102599.53;5218274;28;20034;-83
2023/01/03 00:47:06;;;;;;;10.57;9.88;;;;;;;1.61;100.00;102632.47;5218540;28;20117;-84
2023/01/03 00:49:37;;;;;;;9.95;9.18;;;;;;;1.00;100.00;102552.56;5218294;28;20142;-82
2023/01/03 00:52:07;;;;;;;11.65;10.10;;;;;;;1.58;100.00;102655.91;5217261;28;20025;-82
2023/01/03 00:54:38;;;;;;;11.13;9.73;;;;;;;1.41;100.00;102612.34;5219368;28;20049;-83
2023/01/03 00:57:08;;;;;;;8.60;8.15;;;;;;;1.51;100.00;102633.53;5215818;28;20079;-83
2023/01/03 00:59:38;;;;;;;10.93;10.15;;;;;;;1.50;100.00;102630.03;5214530;28;20021;-83
2023/01/03 01:02:09;;;;;;;11.52;10.20;;;;;;;0.89;100.00;102515.56;5215549;28;20491;-84
2023/01/03 01:04:39;;;;;;;9.80;9.15;;;;;;;1.44;100.00;102620.03;5213925;28;20053;-83
2023/01/03 01:07:09;;;;;;;9.70;9.05;;;;;;;0.60;100.00;102495.34;5213933;28;20036;-82
2023/01/03 01:09:40;;;;;;;10.20;9.43;;;;;;;0.99;100.00;102562.38;5214047;28;20048;-84
2023/01/03 01:12:10;;;;;;;11.55;10.43;;;;;;;1.33;100.00;102633.56;5212668;28;20017;-83
2023/01/03 01:14:40;;;;;;;10.95;9.90;;;;;;;1.21;100.00;102635.59;5213361;28;20053;-83
2023/01/03 01:17:11;;;;;;;10.90;9.80;;;;;;;0.99;100.00;102617.41;5213507;28;20053;-83
2023/01/03 01:19:42;;;;;;;9.57;8.82;;;;;;;1.00;100.00;102621.75;5213791;28;20037;-85
2023/01/03 01:22:13;;;;;;;9.90;9.13;;;;;;;1.13;100.00;102643.50;5212011;28;20053;-83
2023/01/03 01:24:43;;;;;;;11.13;10.18;;;;;;;1.06;100.00;102631.78;5213622;28;20398;-86
2023/01/03 01:27:14;;;;;;;10.35;9.55;;;;;;;0.59;100.00;102553.97;5214716;28;20048;-85
2023/01/03 01:29:44;;;;;;;10.30;9.40;;;;;;;0.96;100.00;102629.19;5214000;28;20041;-83
2023/01/03 01:32:14;;;;;;;11.43;10.73;;;;;;;0.74;100.00;102596.84;5202216;28;20057;-84
2023/01/03 01:34:45;;;;;;;10.55;9.85;;;;;;;1.10;100.00;102648.28;5192501;28;20018;-85
2023/01/03 01:37:15;;;;;;;11.52;10.65;;;;;;;0.25;100.00;102505.94;5193102;28;20088;-83
2023/01/03 01:39:45;;;;;;;10.40;9.48;;;;;;;0.74;100.00;102588.88;5192739;28;20088;-83
2023/01/03 01:45:12;;;;;;;9.18;8.57;;;;;;;1.00;100.00;102645.69;5192933;28;20038;-84
2023/01/03 01:47:51;;;;;;;9.23;8.43;;;;;;;1.07;100.00;102662.72;5192862;28;20018;-85
2023/01/03 01:50:28;;;;;;;10.80;10.00;;;;;;;0.86;100.00;102636.41;5192008;28;20508;-85
2023/01/03 01:53:04;;;;;;;12.13;10.75;;;;;;;0.67;100.00;102605.41;5192414;28;20029;-84
2023/01/03 01:55:40;;;;;;;11.93;10.82;;;;;;;0.75;100.00;102617.13;5192171;28;20432;-84
2023/01/03 01:58:11;;;;;;;10.27;9.48;;;;;;;1.03;100.00;102658.69;5192942;28;20022;-85
2023/01/03 02:00:43;;;;;;;10.98;10.05;;;;;;;1.00;100.00;102645.69;5190485;28;20031;-84
2023/01/03 02:03:13;;;;;;;11.25;10.43;;;;;;;1.14;100.00;102681.59;5191879;28;20037;-84
2023/01/03 02:05:49;;;;;;;9.27;8.68;;;;;;;1.00;100.00;102669.63;5191841;28;20034;-84
2023/01/03 02:08:20;;;;;;;11.00;10.18;;;;;;;1.17;100.00;102682.09;5192899;28;20030;-83
2023/01/03 02:10:54;;;;;;;12.00;11.15;;;;;;;1.23;100.00;102670.03;5191235;28;20443;-83
2023/01/03 02:13:35;;;;;;;10.88;10.13;;;;;;;1.05;100.00;102655.88;5192070;28;20511;-85
2023/01/03 02:16:24;;;;;;;11.73;10.85;;;;;;;1.13;100.00;102686.09;5190210;28;20026;-84
2023/01/03 02:19:33;;;;;;;11.95;11.00;;;;;;;1.11;100.00;102685.38;5190527;28;20038;-85
2023/01/03 02:22:19;;;;;;;12.43;11.18;;;;;;;0.93;100.00;102655.22;5190450;28;20041;-83
2023/01/03 02:25:01;;;;;;;11.95;10.95;;;;;;;1.06;100.00;102673.50;5190313;28;20030;-83
2023/01/03 02:27:32;;;;;;;11.07;10.45;;;;;;;1.17;100.00;102687.44;5191101;28;20030;-84
2023/01/03 02:30:47;;;;;;;11.52;10.52;;;;;;;1.24;100.00;102683.19;5190161;28;20224;-84
2023/01/03 02:33:30;;;;;;;15.63;11.55;;;;;;;1.11;100.00;102661.44;5188254;28;20026;-84
2023/01/03 02:36:17;;;;;;;14.07;11.73;;;;;;;1.27;100.00;102684.72;5197016;28;20014;-82
2023/01/03 02:38:55;;;;;;;13.13;11.90;;;;;;;1.04;100.00;102633.75;5185193;28;20033;-83
2023/01/03 02:41:51;;;;;;;10.95;10.15;;;;;;;1.07;100.00;102646.75;5192405;28;20029;-84
2023/01/03 02:45:03;;;;;;;12.77;11.40;;;;;;;1.00;100.00;102641.19;5192232;28;20516;-85
2023/01/03 02:48:00;;;;;;;14.32;12.95;;;;;;;1.33;100.00;102682.28;5193968;28;20044;-84
2023/01/03 02:50:41;;;;;;;14.10;13.07;;;;;;;1.20;100.00;102665.84;5200303;28;20037;-85
2023/01/03 02:53:17;;;;;;;11.65;10.07;;;;;;;1.03;100.00;102650.72;5201816;28;20086;-84
2023/01/03 02:55:50;;;;;;;12.05;11.25;;;;;;;1.30;100.00;102689.75;5193824;28;20097;-85
2023/01/03 02:58:24;;;;;;;12.88;11.48;;;;;;;1.30;100.00;102681.75;5194209;28;20057;-86
2023/01/03 03:00:58;;;;;;;11.05;10.18;;;;;;;1.17;100.00;102670.63;5194828;28;20034;-85
2023/01/03 03:03:36;;;;;;;14.48;13.15;;;;;;;1.25;100.00;102684.88;5197486;28;20022;-86
2023/01/03 03:06:31;;;;;;;11.35;10.48;;;;;;;1.25;100.00;102684.03;5198807;28;20037;-85
2023/01/03 03:09:02;;;;;;;12.38;11.40;;;;;;;1.19;100.00;102680.13;5197469;28;20287;-85
2023/01/03 03:14:46;;;;;;;12.88;11.55;;;;;;;1.20;100.00;102673.00;5198983;28;20041;-86
2023/01/03 03:17:23;;;;;;;17.08;14.38;;;;;;;1.13;100.00;102664.78;5196791;28;20065;-85
2023/01/03 03:26:37;;;;;;;13.67;12.63;;;;;;;1.37;100.00;102674.84;5200720;28;20068;-86
2023/01/03 03:29:16;;;;;;;23.98;13.70;;;;;;;1.01;100.00;102629.56;5157222;28;20095;-83
2023/01/03 03:31:50;;;;;;;13.70;12.60;;;;;;;1.30;100.00;102671.94;5198791;28;20018;-83
2023/01/03 03:34:24;;;;;;;12.90;11.80;;;;;;;1.06;100.00;102636.28;5201812;28;20061;-84
2023/01/03 03:36:55;;;;;;;13.43;12.38;;;;;;;1.28;100.00;102665.94;5199524;28;20392;-84
2023/01/03 03:45:02;;;;;;;13.52;12.38;;;;;;;1.22;100.00;102660.38;5206283;28;20052;-68
2023/01/03 03:48:07;;;;;;;13.75;12.60;;;;;;;1.22;100.00;102655.88;5206352;28;20104;-68
2023/01/03 03:50:47;;;;;;;13.07;12.18;;;;;;;1.19;100.00;102652.69;5103231;29;20035;-68
2023/01/03 03:53:21;;;;;;;12.82;11.75;;;;;;;1.16;100.00;102645.84;5193768;28;20476;-68
2023/01/03 03:55:55;;;;;;;16.63;12.20;;;;;;;1.24;100.00;102650.41;5205908;28;20072;-68
2023/01/03 03:58:48;;;;;;;16.02;11.52;;;;;;;1.43;100.00;102654.78;5205930;28;20026;-68
2023/01/03 04:01:21;;;;;;;19.35;12.90;;;;;;;1.62;100.00;102659.94;5205391;28;20045;-68
2023/01/03 04:03:56;;;;;;;16.08;12.77;;;;;;;1.77;100.00;102666.38;5205127;28;20037;-68
2023/01/03 04:06:37;;;;;;;14.43;13.18;;;;;;;1.84;100.00;102659.44;5188474;28;20027;-68
2023/01/03 04:09:08;;;;;;;13.18;11.80;;;;;;;1.89;100.00;102662.50;5205699;28;20493;-68
2023/01/03 04:11:38;;;;;;;15.93;13.32;;;;;;;2.05;100.00;102675.09;5205347;28;20028;-68
2023/01/03 04:14:09;;;;;;;15.18;13.73;;;;;;;2.17;100.00;102676.53;5187394;28;20059;-69
2023/01/03 04:16:40;;;;;;;15.50;14.18;;;;;;;2.32;100.00;102676.75;5205784;28;20025;-69
2023/01/03 04:19:10;;;;;;;16.05;14.48;;;;;;;2.49;100.00;102664.38;5205587;28;20432;-69
2023/01/03 04:21:40;;;;;;;14.18;12.75;;;;;;;2.59;100.00;102665.94;5205242;28;20026;-69
2023/01/03 04:24:11;;;;;;;14.25;13.15;;;;;;;2.60;100.00;102656.13;5186987;28;20033;-69
2023/01/03 04:26:41;;;;;;;16.70;15.45;;;;;;;2.74;100.00;102660.00;5205621;28;20022;-69
2023/01/03 04:29:11;;;;;;;16.55;14.93;;;;;;;2.81;100.00;102663.69;5205541;28;20540;-69
2023/01/03 04:31:42;;;;;;;15.60;14.32;;;;;;;2.82;100.00;102644.03;5205404;28;20363;-69
2023/01/03 04:34:13;;;;;;;15.02;13.77;;;;;;;2.98;100.00;102652.06;5204681;28;20032;-69
2023/01/03 04:36:43;;;;;;;17.70;16.08;;;;;;;3.05;100.00;102640.59;5205268;28;20389;-69
2023/01/03 04:39:14;;;;;;;16.52;14.88;;;;;;;3.10;100.00;102650.78;5204893;28;20025;-69
2023/01/03 04:41:44;;;;;;;19.08;17.17;;;;;;;3.15;100.00;102643.13;5204723;28;20120;-69
2023/01/03 04:44:14;;;;;;;19.25;17.42;;;;;;;3.20;100.00;102635.44;5204572;28;20021;-69
2023/01/03 04:46:45;;;;;;;16.77;15.25;;;;;;;3.28;100.00;102638.13;5205088;28;20017;-69
2023/01/03 04:49:15;;;;;;;15.18;13.73;;;;;;;3.21;100.00;102614.91;5187253;28;20021;-69
2023/01/03 04:51:45;;;;;;;14.80;13.38;;;;;;;3.26;100.00;102617.94;5204801;28;20014;-69
2023/01/03 04:54:16;;;;;;;22.08;15.45;;;;;;;3.37;100.00;102623.81;5186639;28;20033;-69
2023/01/03 04:56:46;;;;;;;17.15;15.57;;;;;;;3.39;100.00;102624.47;5186949;28;20029;-68
2023/01/03 04:59:16;;;;;;;17.55;15.98;;;;;;;3.42;100.00;102620.66;5204619;28;20033;-67
2023/01/03 05:01:50;;;;;;;15.38;13.93;;;;;;;3.35;100.00;102619.63;5186737;28;20025;-67
2023/01/03 05:04:21;;;;;;;16.60;15.20;;;;;;;3.38;100.00;102613.97;5204357;28;20029;-68
2023/01/03 05:06:52;;;;;;;14.75;13.52;;;;;;;3.47;100.00;102628.13;5204634;28;20087;-68
2023/01/03 05:09:22;;;;;;;14.80;13.48;;;;;;;3.47;100.00;102636.16;5186601;28;20025;-68
2023/01/03 05:11:53;;;;;;;13.95;12.75;;;;;;;3.51;100.00;102640.16;5204050;28;20021;-68
2023/01/03 05:14:23;;;;;;;13.63;12.45;;;;;;;3.53;100.00;102632.81;5203981;28;20029;-68
2023/01/03 05:16:54;;;;;;;15.20;13.90;;;;;;;3.54;100.00;102629.16;5204392;28;20057;-68
2023/01/03 05:19:24;;;;;;;15.82;14.73;;;;;;;3.57;100.00;102628.81;5204356;28;20017;-68
2023/01/03 05:27:32;;;;;;;23.83;13.45;;;;;;;3.60;100.00;102623.97;5204435;28;20068;-68
2023/01/03 05:30:03;;;;;;;15.55;12.98;;;;;;;3.61;100.00;102625.66;5204523;28;20048;-68
2023/01/03 05:32:33;;;;;;;13.98;12.88;;;;;;;3.63;100.00;102628.16;5203720;28;20505;-69
2023/01/03 05:35:04;;;;;;;15.02;13.55;;;;;;;3.49;100.00;102607.44;5203849;28;20523;-68
2023/01/03 05:37:35;;;;;;;13.43;12.50;;;;;;;3.58;100.00;102615.28;5204553;28;20037;-68
2023/01/03 05:40:06;;;;;;;13.50;12.40;;;;;;;3.64;100.00;102605.78;5204054;28;20030;-69
2023/01/03 05:42:36;;;;;;;13.35;12.32;;;;;;;3.65;100.00;102615.47;5203489;28;20040;-68
2023/01/03 05:45:07;;;;;;;14.23;13.27;;;;;;;3.59;100.00;102600.94;5203915;28;20021;-68
2023/01/03 05:47:37;;;;;;;16.38;14.65;;;;;;;3.72;100.00;102603.94;5203810;28;20690;-68
2023/01/03 05:50:08;;;;;;;13.45;12.38;;;;;;;3.74;100.00;102601.13;5203946;28;20017;-68
2023/01/03 05:52:38;;;;;;;12.75;11.63;;;;;;;3.73;100.00;102607.47;5203134;28;20056;-68
2023/01/03 05:55:09;;;;;;;13.45;12.38;;;;;;;3.70;100.00;102608.63;5203724;28;20384;-68
2023/01/03 05:57:39;;;;;;;13.80;12.50;;;;;;;3.59;100.00;102597.44;5203641;28;20404;-68
2023/01/03 06:00:10;;;;;;;14.35;13.32;;;;;;;3.47;100.00;102596.09;5198011;28;20101;-68
2023/01/03 06:02:41;;;;;;;14.40;10.95;;;;;;;3.49;100.00;102599.44;5188391;28;20444;-68
2023/01/03 06:05:11;;;;;;;14.65;13.48;;;;;;;3.47;100.00;102604.09;5203273;28;20025;-68
2023/01/03 06:07:42;;;;;;;14.40;13.10;;;;;;;3.37;100.00;102602.44;5203532;28;20017;-68
2023/01/03 06:10:12;;;;;;;13.95;12.35;;;;;;;3.42;100.00;102599.28;5203595;28;20025;-68
2023/01/03 06:12:42;;;;;;;12.10;11.30;;;;;;;3.47;100.00;102601.44;5202228;28;20446;-68
2023/01/03 06:15:13;;;;;;;15.35;13.88;;;;;;;3.54;100.00;102591.75;5203820;28;20021;-68
2023/01/03 06:18:01;;;;;;;13.70;12.40;;;;;;;3.62;100.00;102608.63;5187252;28;20029;-68
2023/01/03 06:20:31;;;;;;;14.23;13.05;;;;;;;3.66;100.00;102625.16;5182810;28;20022;-68
2023/01/03 06:23:01;;;;;;;14.65;13.30;;;;;;;3.71;100.00;102625.50;5181558;28;20033;-68
2023/01/03 06:25:32;;;;;;;14.20;13.13;;;;;;;3.67;100.00;102608.13;5183077;28;20022;-68
2023/01/03 06:28:02;;;;;;;14.95;13.75;;;;;;;3.80;100.00;102632.47;5182989;28;20029;-68
2023/01/03 06:30:33;;;;;;;16.23;14.48;;;;;;;3.75;100.00;102620.66;5182829;28;20397;-68
2023/01/03 06:33:03;;;;;;;15.68;14.02;;;;;;;3.88;100.00;102637.00;5164475;28;20030;-68
2023/01/03 06:35:33;;;;;;;16.13;15.13;;;;;;;3.89;100.00;102628.81;5166577;28;20033;-68
2023/01/03 06:38:04;;;;;;;17.85;16.23;;;;;;;3.84;100.00;102644.50;5186971;28;20030;-68
2023/01/03 06:40:34;;;;;;;16.17;14.80;;;;;;;3.90;100.00;102632.31;5186877;28;20029;-68
2023/01/03 06:43:05;;;;;;;15.45;14.00;;;;;;;3.87;100.00;102630.81;5186196;28;20037;-68
2023/01/03 06:54:07;;;;;;;16.80;15.48;;;;;;;3.73;100.00;102636.84;5182940;28;20108;-68
2023/01/03 06:56:38;;;;;;;19.25;17.45;;;;;;;3.70;100.00;102637.19;5185324;28;20037;-68
2023/01/03 06:59:08;;;;;;;21.15;19.13;;;;;;;3.63;100.00;102636.16;5184563;28;20026;-68
2023/01/03 07:01:39;;;;;;;20.52;18.55;;;;;;;3.55;100.00;102636.16;5186228;28;20065;-69
2023/01/03 07:04:10;;;;;;;52.53;47.92;;;;;;;3.56;100.00;102653.84;5185832;28;20029;-68
2023/01/03 07:06:41;;;;;;;72.47;66.15;;;;;;;3.60;100.00;102644.50;5186119;28;20026;-69
2023/01/03 07:09:12;;;;;;;67.95;61.78;;;;;;;3.74;100.00;102651.88;5186392;28;20030;-69
2023/01/03 07:11:43;;;;;;;48.17;44.30;;;;;;;3.71;100.00;102637.00;5186037;28;20037;-69
2023/01/03 07:14:13;;;;;;;39.08;35.80;;;;;;;3.90;100.00;102645.69;5185620;28;20042;-69
2023/01/03 07:16:46;;;;;;;33.97;31.23;;;;;;;3.95;100.00;102643.34;5186310;28;20371;-69
2023/01/03 07:19:18;;;;;;;46.40;41.83;;;;;;;4.01;100.00;102643.50;5185734;28;20025;-69
2023/01/03 07:21:48;;;;;;;47.95;43.92;;;;;;;3.79;100.00;102606.75;5167990;28;20180;-69
2023/01/03 07:24:18;;;;;;;54.75;49.70;;;;;;;4.06;100.00;102641.13;5185830;28;20105;-69
2023/01/03 07:26:49;;;;;;;54.13;48.95;;;;;;;4.15;100.00;102654.50;5186068;28;20018;-69
2023/01/03 07:29:19;;;;;;;47.90;43.05;;;;;;;4.14;100.00;102647.47;5186011;28;20022;-69
2023/01/03 07:31:50;;;;;;;39.00;35.55;;;;;;;4.08;100.00;102647.16;5167675;28;20108;-68
2023/01/03 07:34:20;;;;;;;37.80;34.00;;;;;;;4.21;100.00;102659.19;5185508;28;20026;-69
2023/01/03 07:36:50;;;;;;;30.00;27.33;;;;;;;4.26;100.00;102672.88;5185775;28;20076;-69
2023/01/03 07:39:21;;;;;;;25.50;23.02;;;;;;;4.32;100.00;102682.91;5174180;28;20203;-69
2023/01/03 07:44:40;;;;;;;24.63;21.98;;;;;;;4.41;100.00;102676.50;5185463;28;20168;-69
2023/01/03 07:47:10;;;;;;;27.35;23.85;;;;;;;4.43;100.00;102677.16;5184772;28;20529;-69
2023/01/03 07:49:41;;;;;;;24.90;22.38;;;;;;;4.49;100.00;102681.84;5185562;28;20481;-69
2023/01/03 07:52:11;;;;;;;26.65;24.20;;;;;;;4.55;100.00;102685.69;5185048;28;20626;-69
2023/01/03 07:54:41;;;;;;;25.65;23.35;;;;;;;4.58;100.00;102688.84;5184972;28;20466;-69
2023/01/03 07:57:14;;;;;;;23.70;21.17;;;;;;;4.55;100.00;102673.13;5185340;28;20082;-69
2023/01/03 07:59:44;;;;;;;26.77;23.90;;;;;;;4.65;100.00;102687.13;5184535;28;20026;-68
2023/01/03 08:02:14;;;;;;;21.95;20.10;;;;;;;4.68;100.00;102686.78;5184700;28;20390;-69
2023/01/03 08:04:45;;;;;;;21.33;19.10;;;;;;;4.76;100.00;102696.66;5185107;28;20375;-69
2023/01/03 08:07:15;;;;;;;21.63;19.63;;;;;;;4.80;100.00;102687.25;5185084;28;20474;-69
2023/01/03 08:15:23;;;;;;;24.52;20.30;;;;;;;4.96;100.00;102683.69;5184959;28;20072;-69
2023/01/03 08:17:53;;;;;;;22.08;19.23;;;;;;;5.01;100.00;102678.63;5184936;28;20053;-69
2023/01/03 08:20:24;;;;;;;21.42;18.45;;;;;;;5.07;100.00;102683.31;5184680;28;20098;-70
2023/01/03 08:22:54;;;;;;;21.60;19.63;;;;;;;5.12;100.00;102691.66;5184201;28;20030;-69
2023/01/03 08:25:25;;;;;;;20.52;18.63;;;;;;;5.16;100.00;102684.94;5184983;28;20018;-69
2023/01/03 08:27:59;;;;;;;19.92;17.92;;;;;;;5.16;100.00;102679.56;5184644;28;20021;-69
2023/01/03 08:30:30;;;;;;;20.13;18.05;;;;;;;5.23;100.00;102691.22;5177314;28;20030;-69
2023/01/03 08:33:02;;;;;;;17.45;15.95;;;;;;;5.17;100.00;102675.06;5183735;28;20037;-69
2023/01/03 08:35:36;;;;;;;19.30;17.50;;;;;;;5.30;100.00;102689.53;5184395;28;20497;-69
2023/01/03 08:38:11;;;;;;;19.33;16.92;;;;;;;5.32;100.00;102686.69;5184777;28;20536;-69
2023/01/03 08:40:45;;;;;;;19.85;18.05;;;;;;;5.33;100.00;102683.81;5184024;28;20560;-69
2023/01/03 08:43:16;;;;;;;15.95;14.57;;;;;;;5.39;100.00;102691.16;5184269;28;20096;-69
2023/01/03 08:45:48;;;;;;;22.20;19.02;;;;;;;5.38;100.00;102680.63;5184593;28;20045;-69
2023/01/03 08:48:20;;;;;;;21.45;16.40;;;;;;;5.43;100.00;102687.13;5167116;28;20030;-69
2023/01/03 08:50:51;;;;;;;16.98;14.50;;;;;;;5.49;100.00;102688.22;5184475;28;20347;-69
2023/01/03 08:53:23;;;;;;;16.80;15.20;;;;;;;5.55;100.00;102692.03;5183823;28;20112;-69
2023/01/03 08:55:54;;;;;;;19.65;15.75;;;;;;;5.58;100.00;102686.34;5184701;28;20496;-69
2023/01/03 08:58:24;;;;;;;23.45;16.52;;;;;;;5.60;100.00;102701.22;5183520;28;20053;-69
2023/01/03 09:00:55;;;;;;;15.95;14.27;;;;;;;5.56;100.00;102688.34;5183833;28;20026;-69
2023/01/03 09:03:25;;;;;;;15.65;14.35;;;;;;;5.66;100.00;102697.84;5183270;28;20030;-69
2023/01/03 09:06:00;;;;;;;15.27;13.68;;;;;;;5.60;100.00;102689.69;5184208;28;20101;-69
2023/01/03 09:08:32;;;;;;;15.15;13.95;;;;;;;5.68;100.00;102700.34;5184060;28;20033;-69
2023/01/03 09:11:07;;;;;;;16.33;15.02;;;;;;;5.77;100.00;102707.31;5166350;28;20032;-69
2023/01/03 09:13:37;;;;;;;16.35;14.32;;;;;;;5.81;100.00;102708.59;5183401;28;20052;-69
2023/01/03 09:16:10;;;;;;;16.25;14.60;;;;;;;5.81;100.00;102707.78;5184039;28;20061;-69
2023/01/03 09:18:40;;;;;;;16.15;14.95;;;;;;;5.84;100.00;102700.22;5183642;28;20029;-69
2023/01/03 09:21:11;;;;;;;18.83;14.85;;;;;;;5.93;100.00;102712.56;5183745;28;20541;-68
2023/01/03 09:23:41;;;;;;;15.13;13.02;;;;;;;5.88;100.00;102704.19;5165679;28;20495;-68
2023/01/03 09:26:11;;;;;;;16.48;12.40;;;;;;;6.03;100.00;102701.63;5183674;28;20505;-67
2023/01/03 09:28:42;;;;;;;16.23;13.23;;;;;;;6.14;100.00;102708.38;5183650;28;20072;-68
2023/01/03 09:31:12;;;;;;;19.42;13.68;;;;;;;6.20;100.00;102702.28;5195337;28;20025;-69
2023/01/03 09:33:43;;;;;;;13.50;12.20;;;;;;;6.22;100.00;102701.09;5203320;28;20112;-68
2023/01/03 09:36:13;;;;;;;14.32;13.13;;;;;;;6.22;100.00;102713.66;5204051;28;20025;-68
2023/01/03 09:38:43;;;;;;;13.70;12.38;;;;;;;6.18;100.00;102715.03;5204219;22;20556;-64
2023/01/03 09:41:21;;;;;;;16.17;13.57;;;;;;;6.16;100.00;102709.03;5225785;28;20099;-64
2023/01/03 09:44:00;;;;;;;15.23;13.00;;;;;;;6.04;100.00;102693.38;5224956;28;20059;-63
2023/01/03 09:46:31;;;;;;;13.30;11.23;;;;;;;6.18;100.00;102707.00;5225102;28;20013;-64
2023/01/03 09:49:04;;;;;;;13.70;12.45;;;;;;;6.23;100.00;102718.84;5225005;28;20475;-65
2023/01/03 10:04:05;;;;;;;13.57;11.88;;;;;;;6.29;100.00;102706.56;5224858;28;20062;-65
2023/01/03 10:07:11;;;;;;;13.52;12.35;;;;;;;6.33;100.00;102714.06;5223715;28;20374;-64
2023/01/03 10:09:49;;;;;;;12.07;10.85;;;;;;;6.33;100.00;102724.81;5224493;28;20082;-61
2023/01/03 10:12:28;;;;;;;16.20;14.25;;;;;;;6.36;100.00;102715.53;5224295;28;20047;-64
2023/01/03 10:15:34;;;;;;;12.63;11.63;;;;;;;6.38;100.00;102727.75;5225267;28;20035;-64
2023/01/03 10:18:13;;;;;;;14.55;11.32;;;;;;;6.42;100.00;102723.69;5224899;28;20086;-64
2023/01/03 10:21:07;;;;;;;15.30;13.88;;;;;;;6.41;100.00;102726.56;5222729;28;20217;-64
2023/01/03 10:23:37;;;;;;;14.88;13.48;;;;;;;6.32;100.00;102733.03;5225524;28;20033;-64
2023/01/03 10:26:11;;;;;;;14.00;12.95;;;;;;;6.31;100.00;102717.94;5225918;28;20028;-63
2023/01/03 10:28:44;;;;;;;14.30;13.02;;;;;;;6.34;100.00;102726.47;5224774;28;20029;-63
2023/01/03 10:31:22;;;;;;;19.35;17.60;;;;;;;6.38;100.00;102722.38;5224018;28;20116;-63
2023/01/03 10:33:53;;;;;;;23.95;14.52;;;;;;;6.37;100.00;102739.50;5222801;28;20112;-64
2023/01/03 10:36:23;;;;;;;14.75;13.70;;;;;;;6.38;100.00;102735.81;5224267;28;20458;-63
2023/01/03 10:39:07;;;;;;;16.48;12.18;;;;;;;6.38;100.00;102740.34;5224732;28;20036;-63
2023/01/03 10:41:51;;;;;;;15.40;13.13;;;;;;;6.40;100.00;102733.78;5224454;28;20032;-63
2023/01/03 10:44:31;;;;;;;15.05;13.55;;;;;;;6.38;100.00;102734.97;5224549;28;20082;-63
2023/01/03 10:47:14;;;;;;;15.60;14.40;;;;;;;6.39;100.00;102744.69;5224222;28;20029;-64
2023/01/03 10:49:45;;;;;;;13.07;11.85;;;;;;;6.40;100.00;102746.34;5224646;28;20029;-62
2023/01/03 10:52:21;;;;;;;12.30;11.13;;;;;;;6.32;100.00;102725.81;5222629;28;20083;-63
2023/01/03 10:55:09;;;;;;;12.55;11.45;;;;;;;6.42;100.00;102733.59;5224540;28;20017;-63
2023/01/03 10:57:47;;;;;;;11.23;10.32;;;;;;;6.50;100.00;102738.88;5225386;28;20033;-64
2023/01/03 11:00:34;;;;;;;12.30;11.23;;;;;;;6.55;100.00;102733.81;5224660;28;20297;-68
2023/01/03 11:03:08;;;;;;;11.35;10.40;;;;;;;6.60;100.00;102720.69;5224288;28;20568;-64
2023/01/03 11:05:41;;;;;;;11.05;10.05;;;;;;;6.65;100.00;102720.94;5224359;28;20447;-64
2023/01/03 11:08:15;;;;;;;10.98;10.10;;;;;;;6.76;100.00;102711.59;5223763;28;20040;-64
2023/01/03 11:10:55;;;;;;;9.82;8.50;;;;;;;6.86;100.00;102711.31;5225164;28;20131;-64
2023/01/03 11:14:03;;;;;;;9.20;8.32;;;;;;;6.93;100.00;102723.78;5224355;28;20032;-65
2023/01/03 11:16:34;;;;;;;9.70;8.75;;;;;;;7.01;100.00;102717.50;5225299;28;20078;-64
2023/01/03 11:19:05;;;;;;;10.55;9.38;;;;;;;7.07;100.00;102714.06;5224768;28;20029;-63
2023/01/03 11:22:00;;;;;;;8.50;7.70;;;;;;;7.10;100.00;102706.47;5224895;28;20033;-64
2023/01/03 11:24:46;;;;;;;8.60;7.63;;;;;;;7.14;100.00;102704.25;5219332;28;20052;-63
2023/01/03 11:27:27;;;;;;;7.82;7.25;;;;;;;7.09;100.00;102701.28;5229427;28;20067;-64
2023/01/03 11:30:19;;;;;;;6.18;5.68;;;;;;;7.19;100.00;102691.09;5228250;28;20025;-64
2023/01/03 11:33:11;;;;;;;15.73;6.70;;;;;;;7.25;100.00;102689.47;5207162;28;20380;-64
2023/01/03 11:35:42;;;;;;;15.50;7.05;;;;;;;7.31;100.00;102686.88;5270835;22;20052;-82
2023/01/03 11:38:26;;;;;;;6.72;6.05;;;;;;;7.38;100.00;102671.66;5218621;28;20025;-82
2023/01/03 11:40:59;;;;;;;7.50;6.82;;;;;;;7.48;100.00;102673.22;5216368;28;20022;-83
2023/01/03 11:43:35;;;;;;;9.63;8.68;;;;;;;7.59;100.00;102673.50;5232514;28;20030;-80
2023/01/03 11:46:12;;;;;;;10.27;7.45;;;;;;;7.60;100.00;102674.34;5232212;28;20029;-80
2023/01/03 11:49:05;;;;;;;8.75;7.88;;;;;;;7.62;100.00;102672.31;5213693;28;20049;-80
2023/01/03 11:51:47;;;;;;;8.02;7.10;;;;;;;7.26;100.00;102618.59;5216023;28;20116;-82
2023/01/03 11:54:54;;;;;;;8.30;7.32;;;;;;;7.39;100.00;102648.31;5217583;28;20022;-83
2023/01/03 11:57:41;;;;;;;7.50;6.90;;;;;;;7.53;100.00;102662.69;5216799;28;20026;-80
2023/01/03 12:00:42;;;;;;;8.65;7.90;;;;;;;7.48;100.00;102659.78;5216452;28;20025;-81
2023/01/03 12:03:16;;;;;;;11.43;6.60;;;;;;;7.55;100.00;102661.47;5216548;28;20029;-81
2023/01/03 12:06:36;;;;;;;8.98;6.88;;;;;;;7.61;100.00;102660.72;5215710;28;20271;-82
2023/01/03 12:09:18;;;;;;;7.90;6.95;;;;;;;7.48;100.00;102622.13;5215819;28;20093;-83
2023/01/03 12:12:10;;;;;;;14.23;7.75;;;;;;;7.74;100.00;102641.19;5217198;28;20463;-82
2023/01/03 12:14:47;;;;;;;6.75;6.20;;;;;;;7.79;100.00;102641.44;5217140;28;20025;-82
2023/01/03 12:17:27;;;;;;;9.02;5.45;;;;;;;7.78;100.00;102640.63;5216407;28;20112;-82
2023/01/03 12:20:02;;;;;;;;;;;;;;;7.90;100.00;102638.22;5217559;28;20422;-84
2023/01/03 12:22:38;;;;;;;8.02;7.38;;;;;;;7.98;100.00;102638.09;5215750;28;20008;-81
2023/01/03 12:25:27;;;;;;;5.05;4.85;;;;;;;8.05;100.00;102627.38;5217215;28;20399;-81
2023/01/03 12:28:10;;;;;;;7.03;4.85;;;;;;;8.14;100.00;102629.69;5214743;28;20029;-80
2023/01/03 12:30:47;;;;;;;6.07;5.50;;;;;;;8.20;100.00;102622.72;5216682;28;20486;-81
2023/01/03 12:33:39;;;;;;;5.38;5.03;;;;;;;8.17;100.00;102623.09;5214840;28;20029;-81
2023/01/03 12:36:24;;;;;;;6.55;6.00;;;;;;;7.36;100.00;102512.44;5242666;22;20427;-91
2023/01/03 12:39:56;;;;;;;5.43;5.13;;;;;;;7.88;100.00;102564.94;5252316;28;20127;-89
2023/01/03 12:42:39;;;;;;;5.75;5.40;;;;;;;8.21;100.00;102615.47;5189752;28;20040;-89
2023/01/03 12:45:33;;;;;;;5.03;4.53;;;;;;;6.99;100.00;102449.09;5241206;28;20036;-90